sensor_id;sensor_type;location;lat;lon;timestamp;P1;durP1;ratioP1;P2;durP2;ratioP2
22318;SDS011;11327;52.334;9.506;2023-05-07T00:01:01;46.48;;;29.90;;
22318;SDS011;11327;52.334;9.506;2023-05-07T00:04:22;46.15;;;29.00;;
22318;SDS011;11327;52.334;9.506;2023-05-07T00:07:43;46.37;;;29.25;;
22318;SDS011;11327;52.334;9.506;2023-05-07T00:11:04;48.78;;;30.77;;
22318;SDS011;11327;52.334;9.506;2023-05-07T00:14:25;46.98;;;29.52;;
22318;SDS011;11327;52.334;9.506;2023-05-07T00:17:45;50.30;;;31.12;;
22318;SDS011;11327;52.334;9.506;2023-05-07T00:21:06;48.87;;;31.23;;
22318;SDS011;11327;52.334;9.506;2023-05-07T00:24:27;46.95;;;30.85;;
22318;SDS011;11327;52.334;9.506;2023-05-07T00:27:48;45.88;;;30.05;;
22318;SDS011;11327;52.334;9.506;2023-05-07T00:31:08;46.30;;;29.37;;
22318;SDS011;11327;52.334;9.506;2023-05-07T00:34:29;42.62;;;28.30;;
22318;SDS011;11327;52.334;9.506;2023-05-07T00:37:50;42.00;;;27.70;;
22318;SDS011;11327;52.334;9.506;2023-05-07T00:41:11;46.35;;;28.47;;
22318;SDS011;11327;52.334;9.506;2023-05-07T00:44:31;42.83;;;27.87;;
22318;SDS011;11327;52.334;9.506;2023-05-07T00:47:55;45.80;;;27.85;;
22318;SDS011;11327;52.334;9.506;2023-05-07T00:51:19;42.17;;;27.50;;
22318;SDS011;11327;52.334;9.506;2023-05-07T00:54:40;44.10;;;27.90;;
22318;SDS011;11327;52.334;9.506;2023-05-07T00:58:02;42.85;;;27.58;;
22318;SDS011;11327;52.334;9.506;2023-05-07T01:01:23;44.55;;;27.67;;
22318;SDS011;11327;52.334;9.506;2023-05-07T01:04:43;46.63;;;28.83;;
22318;SDS011;11327;52.334;9.506;2023-05-07T01:08:04;40.52;;;26.17;;
22318;SDS011;11327;52.334;9.506;2023-05-07T01:11:25;43.55;;;28.00;;
22318;SDS011;11327;52.334;9.506;2023-05-07T01:14:46;43.90;;;26.85;;
22318;SDS011;11327;52.334;9.506;2023-05-07T01:18:09;43.75;;;28.15;;
22318;SDS011;11327;52.334;9.506;2023-05-07T01:21:33;50.88;;;29.25;;
22318;SDS011;11327;52.334;9.506;2023-05-07T01:24:53;47.15;;;28.25;;
22318;SDS011;11327;52.334;9.506;2023-05-07T01:28:16;46.18;;;28.98;;
22318;SDS011;11327;52.334;9.506;2023-05-07T01:31:37;50.30;;;30.05;;
22318;SDS011;11327;52.334;9.506;2023-05-07T01:34:59;47.08;;;28.12;;
22318;SDS011;11327;52.334;9.506;2023-05-07T01:38:21;46.45;;;26.85;;
22318;SDS011;11327;52.334;9.506;2023-05-07T01:41:43;47.00;;;28.25;;
22318;SDS011;11327;52.334;9.506;2023-05-07T01:45:06;49.18;;;28.67;;
22318;SDS011;11327;52.334;9.506;2023-05-07T01:48:27;47.17;;;27.58;;
22318;SDS011;11327;52.334;9.506;2023-05-07T01:51:49;46.58;;;27.62;;
22318;SDS011;11327;52.334;9.506;2023-05-07T01:55:10;46.50;;;27.67;;
22318;SDS011;11327;52.334;9.506;2023-05-07T01:58:31;45.85;;;27.52;;
22318;SDS011;11327;52.334;9.506;2023-05-07T02:01:52;41.18;;;25.43;;
22318;SDS011;11327;52.334;9.506;2023-05-07T02:05:12;44.75;;;26.37;;
22318;SDS011;11327;52.334;9.506;2023-05-07T02:08:33;42.80;;;25.15;;
22318;SDS011;11327;52.334;9.506;2023-05-07T02:11:54;42.80;;;25.37;;
22318;SDS011;11327;52.334;9.506;2023-05-07T02:15:15;40.55;;;25.57;;
22318;SDS011;11327;52.334;9.506;2023-05-07T02:18:35;39.95;;;24.07;;
22318;SDS011;11327;52.334;9.506;2023-05-07T02:21:58;37.88;;;24.05;;
22318;SDS011;11327;52.334;9.506;2023-05-07T02:25:18;40.80;;;23.70;;
22318;SDS011;11327;52.334;9.506;2023-05-07T02:28:39;37.15;;;21.90;;
22318;SDS011;11327;52.334;9.506;2023-05-07T02:32:00;35.90;;;21.33;;
22318;SDS011;11327;52.334;9.506;2023-05-07T02:35:20;32.90;;;21.12;;
22318;SDS011;11327;52.334;9.506;2023-05-07T02:38:41;32.20;;;21.10;;
22318;SDS011;11327;52.334;9.506;2023-05-07T02:42:02;32.15;;;20.20;;
22318;SDS011;11327;52.334;9.506;2023-05-07T02:45:23;31.65;;;19.90;;
22318;SDS011;11327;52.334;9.506;2023-05-07T02:48:44;28.70;;;18.85;;
22318;SDS011;11327;52.334;9.506;2023-05-07T02:52:05;27.65;;;18.35;;
22318;SDS011;11327;52.334;9.506;2023-05-07T02:55:25;26.50;;;16.82;;
22318;SDS011;11327;52.334;9.506;2023-05-07T02:58:46;26.02;;;17.27;;
22318;SDS011;11327;52.334;9.506;2023-05-07T03:02:07;25.12;;;16.95;;
22318;SDS011;11327;52.334;9.506;2023-05-07T03:05:28;24.25;;;15.70;;
22318;SDS011;11327;52.334;9.506;2023-05-07T03:08:48;25.30;;;16.95;;
22318;SDS011;11327;52.334;9.506;2023-05-07T03:12:09;25.12;;;16.48;;
22318;SDS011;11327;52.334;9.506;2023-05-07T03:15:30;25.30;;;15.55;;
22318;SDS011;11327;52.334;9.506;2023-05-07T03:18:50;24.35;;;16.32;;
22318;SDS011;11327;52.334;9.506;2023-05-07T03:22:11;26.10;;;16.55;;
22318;SDS011;11327;52.334;9.506;2023-05-07T03:25:32;26.27;;;16.77;;
22318;SDS011;11327;52.334;9.506;2023-05-07T03:28:53;24.80;;;17.87;;
22318;SDS011;11327;52.334;9.506;2023-05-07T03:32:13;25.77;;;17.07;;
22318;SDS011;11327;52.334;9.506;2023-05-07T03:35:34;27.20;;;18.67;;
22318;SDS011;11327;52.334;9.506;2023-05-07T03:38:55;25.80;;;17.95;;
22318;SDS011;11327;52.334;9.506;2023-05-07T03:42:16;29.00;;;19.35;;
22318;SDS011;11327;52.334;9.506;2023-05-07T03:45:37;30.45;;;19.77;;
22318;SDS011;11327;52.334;9.506;2023-05-07T03:48:57;31.07;;;21.57;;
22318;SDS011;11327;52.334;9.506;2023-05-07T03:52:18;32.17;;;21.25;;
22318;SDS011;11327;52.334;9.506;2023-05-07T03:55:41;34.25;;;23.10;;
22318;SDS011;11327;52.334;9.506;2023-05-07T03:59:02;32.95;;;21.93;;
22318;SDS011;11327;52.334;9.506;2023-05-07T04:02:22;35.00;;;22.42;;
22318;SDS011;11327;52.334;9.506;2023-05-07T04:05:43;34.58;;;22.48;;
22318;SDS011;11327;52.334;9.506;2023-05-07T04:09:04;32.95;;;22.55;;
22318;SDS011;11327;52.334;9.506;2023-05-07T04:12:25;33.18;;;22.75;;
22318;SDS011;11327;52.334;9.506;2023-05-07T04:15:45;34.10;;;23.38;;
22318;SDS011;11327;52.334;9.506;2023-05-07T04:19:06;35.58;;;23.42;;
22318;SDS011;11327;52.334;9.506;2023-05-07T04:22:27;33.53;;;22.02;;
22318;SDS011;11327;52.334;9.506;2023-05-07T04:25:48;34.30;;;21.17;;
22318;SDS011;11327;52.334;9.506;2023-05-07T04:29:08;28.75;;;20.20;;
22318;SDS011;11327;52.334;9.506;2023-05-07T04:32:30;29.57;;;20.25;;
22318;SDS011;11327;52.334;9.506;2023-05-07T04:35:50;28.98;;;18.82;;
22318;SDS011;11327;52.334;9.506;2023-05-07T04:39:11;28.15;;;18.98;;
22318;SDS011;11327;52.334;9.506;2023-05-07T04:42:32;27.60;;;17.87;;
22318;SDS011;11327;52.334;9.506;2023-05-07T04:45:53;28.15;;;18.73;;
22318;SDS011;11327;52.334;9.506;2023-05-07T04:49:14;27.37;;;18.75;;
22318;SDS011;11327;52.334;9.506;2023-05-07T04:52:34;32.80;;;21.35;;
22318;SDS011;11327;52.334;9.506;2023-05-07T04:55:55;30.80;;;20.70;;
22318;SDS011;11327;52.334;9.506;2023-05-07T04:59:17;28.42;;;20.32;;
22318;SDS011;11327;52.334;9.506;2023-05-07T05:02:38;30.80;;;20.25;;
22318;SDS011;11327;52.334;9.506;2023-05-07T05:05:58;31.93;;;21.68;;
22318;SDS011;11327;52.334;9.506;2023-05-07T05:09:20;32.20;;;20.92;;
22318;SDS011;11327;52.334;9.506;2023-05-07T05:12:40;32.10;;;21.60;;
22318;SDS011;11327;52.334;9.506;2023-05-07T05:16:01;32.28;;;22.70;;
22318;SDS011;11327;52.334;9.506;2023-05-07T05:19:22;32.33;;;20.60;;
22318;SDS011;11327;52.334;9.506;2023-05-07T05:22:43;29.63;;;20.15;;
22318;SDS011;11327;52.334;9.506;2023-05-07T05:26:03;31.82;;;21.85;;
22318;SDS011;11327;52.334;9.506;2023-05-07T05:29:24;31.97;;;20.75;;
22318;SDS011;11327;52.334;9.506;2023-05-07T05:32:45;30.17;;;19.40;;
22318;SDS011;11327;52.334;9.506;2023-05-07T05:36:05;29.65;;;20.30;;
22318;SDS011;11327;52.334;9.506;2023-05-07T05:39:28;28.52;;;19.48;;
22318;SDS011;11327;52.334;9.506;2023-05-07T05:42:49;28.90;;;19.70;;
22318;SDS011;11327;52.334;9.506;2023-05-07T05:46:10;30.92;;;20.40;;
22318;SDS011;11327;52.334;9.506;2023-05-07T05:49:32;27.52;;;18.95;;
22318;SDS011;11327;52.334;9.506;2023-05-07T05:52:52;26.27;;;18.98;;
22318;SDS011;11327;52.334;9.506;2023-05-07T05:56:13;25.30;;;17.62;;
22318;SDS011;11327;52.334;9.506;2023-05-07T05:59:34;25.92;;;17.30;;
22318;SDS011;11327;52.334;9.506;2023-05-07T06:02:54;23.30;;;16.57;;
22318;SDS011;11327;52.334;9.506;2023-05-07T06:06:15;20.80;;;15.00;;
22318;SDS011;11327;52.334;9.506;2023-05-07T06:09:36;21.45;;;15.45;;
22318;SDS011;11327;52.334;9.506;2023-05-07T06:12:57;23.07;;;16.25;;
22318;SDS011;11327;52.334;9.506;2023-05-07T06:16:17;24.25;;;16.85;;
22318;SDS011;11327;52.334;9.506;2023-05-07T06:19:38;20.92;;;16.00;;
22318;SDS011;11327;52.334;9.506;2023-05-07T06:22:59;19.92;;;14.40;;
22318;SDS011;11327;52.334;9.506;2023-05-07T06:26:20;20.70;;;15.45;;
22318;SDS011;11327;52.334;9.506;2023-05-07T06:29:41;20.27;;;15.10;;
22318;SDS011;11327;52.334;9.506;2023-05-07T06:33:01;19.07;;;14.20;;
22318;SDS011;11327;52.334;9.506;2023-05-07T06:36:22;20.30;;;14.80;;
22318;SDS011;11327;52.334;9.506;2023-05-07T06:39:43;19.05;;;14.93;;
22318;SDS011;11327;52.334;9.506;2023-05-07T06:43:03;19.40;;;14.87;;
22318;SDS011;11327;52.334;9.506;2023-05-07T06:46:24;18.25;;;13.28;;
22318;SDS011;11327;52.334;9.506;2023-05-07T06:49:45;16.48;;;13.28;;
22318;SDS011;11327;52.334;9.506;2023-05-07T06:53:06;17.85;;;13.80;;
22318;SDS011;11327;52.334;9.506;2023-05-07T06:56:27;17.92;;;13.32;;
22318;SDS011;11327;52.334;9.506;2023-05-07T06:59:47;14.65;;;12.23;;
22318;SDS011;11327;52.334;9.506;2023-05-07T07:03:08;17.07;;;12.95;;
22318;SDS011;11327;52.334;9.506;2023-05-07T07:06:29;18.40;;;13.38;;
22318;SDS011;11327;52.334;9.506;2023-05-07T07:09:51;16.23;;;12.93;;
22318;SDS011;11327;52.334;9.506;2023-05-07T07:13:12;15.32;;;12.40;;
22318;SDS011;11327;52.334;9.506;2023-05-07T07:16:33;16.75;;;12.85;;
22318;SDS011;11327;52.334;9.506;2023-05-07T07:19:54;15.28;;;12.73;;
22318;SDS011;11327;52.334;9.506;2023-05-07T07:23:14;13.15;;;10.85;;
22318;SDS011;11327;52.334;9.506;2023-05-07T07:26:35;12.68;;;10.78;;
22318;SDS011;11327;52.334;9.506;2023-05-07T07:29:56;12.00;;;10.38;;
22318;SDS011;11327;52.334;9.506;2023-05-07T07:33:17;13.13;;;10.70;;
22318;SDS011;11327;52.334;9.506;2023-05-07T07:36:37;12.73;;;10.23;;
22318;SDS011;11327;52.334;9.506;2023-05-07T07:39:58;13.25;;;10.53;;
22318;SDS011;11327;52.334;9.506;2023-05-07T07:43:20;13.60;;;10.78;;
22318;SDS011;11327;52.334;9.506;2023-05-07T07:46:41;13.32;;;10.65;;
22318;SDS011;11327;52.334;9.506;2023-05-07T07:50:02;13.10;;;10.95;;
22318;SDS011;11327;52.334;9.506;2023-05-07T07:53:23;14.00;;;11.35;;
22318;SDS011;11327;52.334;9.506;2023-05-07T07:56:43;13.72;;;11.08;;
22318;SDS011;11327;52.334;9.506;2023-05-07T08:00:05;14.10;;;11.85;;
22318;SDS011;11327;52.334;9.506;2023-05-07T08:03:27;16.20;;;12.95;;
22318;SDS011;11327;52.334;9.506;2023-05-07T08:06:48;16.93;;;13.72;;
22318;SDS011;11327;52.334;9.506;2023-05-07T08:10:09;15.13;;;12.60;;
22318;SDS011;11327;52.334;9.506;2023-05-07T08:13:30;16.67;;;13.75;;
22318;SDS011;11327;52.334;9.506;2023-05-07T08:16:50;16.42;;;13.10;;
22318;SDS011;11327;52.334;9.506;2023-05-07T08:20:11;14.45;;;12.10;;
22318;SDS011;11327;52.334;9.506;2023-05-07T08:23:32;13.83;;;11.70;;
22318;SDS011;11327;52.334;9.506;2023-05-07T08:26:54;13.58;;;11.45;;
22318;SDS011;11327;52.334;9.506;2023-05-07T08:30:15;14.83;;;12.37;;
22318;SDS011;11327;52.334;9.506;2023-05-07T08:33:36;14.15;;;12.40;;
22318;SDS011;11327;52.334;9.506;2023-05-07T08:36:58;14.65;;;12.73;;
22318;SDS011;11327;52.334;9.506;2023-05-07T08:40:19;17.17;;;13.68;;
22318;SDS011;11327;52.334;9.506;2023-05-07T08:43:44;15.63;;;12.95;;
22318;SDS011;11327;52.334;9.506;2023-05-07T08:47:07;18.10;;;14.90;;
22318;SDS011;11327;52.334;9.506;2023-05-07T08:50:28;18.50;;;16.05;;
22318;SDS011;11327;52.334;9.506;2023-05-07T08:53:50;17.57;;;15.65;;
22318;SDS011;11327;52.334;9.506;2023-05-07T08:57:10;18.92;;;15.43;;
22318;SDS011;11327;52.334;9.506;2023-05-07T09:00:31;17.77;;;15.35;;
22318;SDS011;11327;52.334;9.506;2023-05-07T09:03:52;20.17;;;17.23;;
22318;SDS011;11327;52.334;9.506;2023-05-07T09:07:13;23.80;;;18.57;;
22318;SDS011;11327;52.334;9.506;2023-05-07T09:10:34;21.65;;;18.15;;
22318;SDS011;11327;52.334;9.506;2023-05-07T09:13:55;19.10;;;16.70;;
22318;SDS011;11327;52.334;9.506;2023-05-07T09:17:18;17.25;;;15.38;;
22318;SDS011;11327;52.334;9.506;2023-05-07T09:20:39;18.05;;;16.15;;
22318;SDS011;11327;52.334;9.506;2023-05-07T09:24:00;18.75;;;16.75;;
22318;SDS011;11327;52.334;9.506;2023-05-07T09:27:21;21.57;;;18.40;;
22318;SDS011;11327;52.334;9.506;2023-05-07T09:30:41;21.55;;;19.12;;
22318;SDS011;11327;52.334;9.506;2023-05-07T09:34:02;20.88;;;18.27;;
22318;SDS011;11327;52.334;9.506;2023-05-07T09:37:25;19.42;;;17.32;;
22318;SDS011;11327;52.334;9.506;2023-05-07T09:40:47;19.05;;;17.05;;
22318;SDS011;11327;52.334;9.506;2023-05-07T09:44:08;18.62;;;16.62;;
22318;SDS011;11327;52.334;9.506;2023-05-07T09:47:30;17.75;;;15.72;;
22318;SDS011;11327;52.334;9.506;2023-05-07T09:50:53;18.02;;;16.05;;
22318;SDS011;11327;52.334;9.506;2023-05-07T09:54:18;17.17;;;14.63;;
22318;SDS011;11327;52.334;9.506;2023-05-07T09:57:39;15.18;;;13.58;;
22318;SDS011;11327;52.334;9.506;2023-05-07T10:01:01;15.45;;;13.65;;
22318;SDS011;11327;52.334;9.506;2023-05-07T10:04:23;14.43;;;12.93;;
22318;SDS011;11327;52.334;9.506;2023-05-07T10:07:45;14.15;;;12.63;;
22318;SDS011;11327;52.334;9.506;2023-05-07T10:11:06;16.10;;;14.40;;
22318;SDS011;11327;52.334;9.506;2023-05-07T10:14:27;15.38;;;13.78;;
22318;SDS011;11327;52.334;9.506;2023-05-07T10:17:48;16.95;;;15.15;;
22318;SDS011;11327;52.334;9.506;2023-05-07T10:21:16;18.10;;;15.10;;
22318;SDS011;11327;52.334;9.506;2023-05-07T10:24:39;16.27;;;14.60;;
22318;SDS011;11327;52.334;9.506;2023-05-07T10:28:05;17.35;;;14.68;;
22318;SDS011;11327;52.334;9.506;2023-05-07T10:35:10;17.77;;;15.88;;
22318;SDS011;11327;52.334;9.506;2023-05-07T10:38:41;19.73;;;16.00;;
22318;SDS011;11327;52.334;9.506;2023-05-07T10:42:12;17.77;;;15.40;;
22318;SDS011;11327;52.334;9.506;2023-05-07T10:45:34;17.35;;;15.55;;
22318;SDS011;11327;52.334;9.506;2023-05-07T10:52:27;17.62;;;15.68;;
22318;SDS011;11327;52.334;9.506;2023-05-07T10:55:51;17.62;;;15.68;;
22318;SDS011;11327;52.334;9.506;2023-05-07T10:59:30;18.35;;;16.35;;
22318;SDS011;11327;52.334;9.506;2023-05-07T11:04:12;19.02;;;16.45;;
22318;SDS011;11327;52.334;9.506;2023-05-07T11:06:21;18.65;;;16.62;;
22318;SDS011;11327;52.334;9.506;2023-05-07T11:17:08;17.73;;;15.45;;
22318;SDS011;11327;52.334;9.506;2023-05-07T11:24:11;19.85;;;14.43;;
22318;SDS011;11327;52.334;9.506;2023-05-07T11:27:32;18.30;;;15.53;;
22318;SDS011;11327;52.334;9.506;2023-05-07T11:30:53;16.50;;;14.80;;
22318;SDS011;11327;52.334;9.506;2023-05-07T11:34:15;16.55;;;14.75;;
22318;SDS011;11327;52.334;9.506;2023-05-07T11:37:37;17.45;;;14.15;;
22318;SDS011;11327;52.334;9.506;2023-05-07T11:40:59;15.00;;;13.40;;
22318;SDS011;11327;52.334;9.506;2023-05-07T11:44:21;14.85;;;13.35;;
22318;SDS011;11327;52.334;9.506;2023-05-07T11:47:42;15.18;;;13.40;;
22318;SDS011;11327;52.334;9.506;2023-05-07T11:51:03;15.65;;;14.05;;
22318;SDS011;11327;52.334;9.506;2023-05-07T11:54:25;15.08;;;13.58;;
22318;SDS011;11327;52.334;9.506;2023-05-07T11:57:46;16.35;;;14.60;;
22318;SDS011;11327;52.334;9.506;2023-05-07T12:01:08;15.75;;;14.20;;
22318;SDS011;11327;52.334;9.506;2023-05-07T12:04:30;14.38;;;12.93;;
22318;SDS011;11327;52.334;9.506;2023-05-07T12:07:55;13.90;;;12.50;;
22318;SDS011;11327;52.334;9.506;2023-05-07T12:11:16;14.55;;;12.88;;
22318;SDS011;11327;52.334;9.506;2023-05-07T12:14:45;14.47;;;12.00;;
22318;SDS011;11327;52.334;9.506;2023-05-07T12:18:06;13.95;;;12.45;;
22318;SDS011;11327;52.334;9.506;2023-05-07T12:21:27;14.45;;;13.00;;
22318;SDS011;11327;52.334;9.506;2023-05-07T12:24:50;14.05;;;12.65;;
22318;SDS011;11327;52.334;9.506;2023-05-07T12:28:19;15.48;;;12.35;;
22318;SDS011;11327;52.334;9.506;2023-05-07T12:31:40;13.55;;;12.20;;
22318;SDS011;11327;52.334;9.506;2023-05-07T12:35:02;13.35;;;12.05;;
22318;SDS011;11327;52.334;9.506;2023-05-07T12:38:23;13.25;;;11.80;;
22318;SDS011;11327;52.334;9.506;2023-05-07T12:41:56;12.65;;;11.35;;
22318;SDS011;11327;52.334;9.506;2023-05-07T12:45:20;12.07;;;10.85;;
22318;SDS011;11327;52.334;9.506;2023-05-07T12:48:43;11.93;;;10.72;;
22318;SDS011;11327;52.334;9.506;2023-05-07T12:52:05;11.70;;;10.50;;
22318;SDS011;11327;52.334;9.506;2023-05-07T12:55:26;11.30;;;10.15;;
22318;SDS011;11327;52.334;9.506;2023-05-07T12:58:49;11.68;;;10.58;;
22318;SDS011;11327;52.334;9.506;2023-05-07T13:02:10;10.70;;;9.70;;
22318;SDS011;11327;52.334;9.506;2023-05-07T13:05:31;10.85;;;9.75;;
22318;SDS011;11327;52.334;9.506;2023-05-07T13:08:52;11.08;;;10.08;;
22318;SDS011;11327;52.334;9.506;2023-05-07T13:12:13;10.53;;;9.53;;
22318;SDS011;11327;52.334;9.506;2023-05-07T13:15:34;10.75;;;9.38;;
22318;SDS011;11327;52.334;9.506;2023-05-07T13:18:55;10.03;;;9.05;;
22318;SDS011;11327;52.334;9.506;2023-05-07T13:22:16;10.55;;;9.55;;
22318;SDS011;11327;52.334;9.506;2023-05-07T13:25:37;10.53;;;9.53;;
22318;SDS011;11327;52.334;9.506;2023-05-07T13:28:57;11.57;;;10.38;;
22318;SDS011;11327;52.334;9.506;2023-05-07T13:32:18;12.50;;;11.30;;
22318;SDS011;11327;52.334;9.506;2023-05-07T13:35:39;12.43;;;11.12;;
22318;SDS011;11327;52.334;9.506;2023-05-07T13:39:00;12.68;;;11.38;;
22318;SDS011;11327;52.334;9.506;2023-05-07T13:42:21;14.10;;;12.70;;
22318;SDS011;11327;52.334;9.506;2023-05-07T13:45:42;14.28;;;12.80;;
22318;SDS011;11327;52.334;9.506;2023-05-07T13:49:02;13.65;;;12.25;;
22318;SDS011;11327;52.334;9.506;2023-05-07T13:52:23;14.45;;;12.95;;
22318;SDS011;11327;52.334;9.506;2023-05-07T13:55:44;14.73;;;13.22;;
22318;SDS011;11327;52.334;9.506;2023-05-07T13:59:07;14.90;;;13.40;;
22318;SDS011;11327;52.334;9.506;2023-05-07T14:02:28;14.85;;;13.38;;
22318;SDS011;11327;52.334;9.506;2023-05-07T14:05:49;14.15;;;12.75;;
22318;SDS011;11327;52.334;9.506;2023-05-07T14:09:10;14.55;;;13.13;;
22318;SDS011;11327;52.334;9.506;2023-05-07T14:12:32;15.10;;;13.38;;
22318;SDS011;11327;52.334;9.506;2023-05-07T14:15:53;15.13;;;13.62;;
22318;SDS011;11327;52.334;9.506;2023-05-07T14:19:14;14.90;;;13.48;;
22318;SDS011;11327;52.334;9.506;2023-05-07T14:22:35;14.83;;;13.32;;
22318;SDS011;11327;52.334;9.506;2023-05-07T14:25:55;15.75;;;14.15;;
22318;SDS011;11327;52.334;9.506;2023-05-07T14:29:17;14.78;;;13.18;;
22318;SDS011;11327;52.334;9.506;2023-05-07T14:32:39;14.28;;;12.98;;
22318;SDS011;11327;52.334;9.506;2023-05-07T14:35:59;14.20;;;12.80;;
22318;SDS011;11327;52.334;9.506;2023-05-07T14:39:20;13.68;;;12.40;;
22318;SDS011;11327;52.334;9.506;2023-05-07T14:42:41;12.95;;;11.68;;
22318;SDS011;11327;52.334;9.506;2023-05-07T14:46:02;13.05;;;11.60;;
22318;SDS011;11327;52.334;9.506;2023-05-07T14:49:23;13.28;;;11.95;;
22318;SDS011;11327;52.334;9.506;2023-05-07T14:52:44;13.70;;;12.20;;
22318;SDS011;11327;52.334;9.506;2023-05-07T14:56:05;12.25;;;10.82;;
22318;SDS011;11327;52.334;9.506;2023-05-07T14:59:26;11.88;;;10.78;;
22318;SDS011;11327;52.334;9.506;2023-05-07T15:02:48;13.60;;;10.75;;
22318;SDS011;11327;52.334;9.506;2023-05-07T15:06:08;13.15;;;11.03;;
22318;SDS011;11327;52.334;9.506;2023-05-07T15:09:29;11.18;;;10.08;;
22318;SDS011;11327;52.334;9.506;2023-05-07T15:12:50;12.43;;;11.18;;
22318;SDS011;11327;52.334;9.506;2023-05-07T15:16:11;11.88;;;10.72;;
22318;SDS011;11327;52.334;9.506;2023-05-07T15:19:31;11.85;;;10.63;;
22318;SDS011;11327;52.334;9.506;2023-05-07T15:22:52;11.53;;;10.43;;
22318;SDS011;11327;52.334;9.506;2023-05-07T15:26:13;11.68;;;10.48;;
22318;SDS011;11327;52.334;9.506;2023-05-07T15:29:33;11.50;;;10.30;;
22318;SDS011;11327;52.334;9.506;2023-05-07T15:32:54;13.18;;;11.90;;
22318;SDS011;11327;52.334;9.506;2023-05-07T15:36:15;12.75;;;10.90;;
22318;SDS011;11327;52.334;9.506;2023-05-07T15:39:36;12.88;;;11.57;;
22318;SDS011;11327;52.334;9.506;2023-05-07T15:42:57;13.10;;;11.65;;
22318;SDS011;11327;52.334;9.506;2023-05-07T15:46:23;13.38;;;11.97;;
22318;SDS011;11327;52.334;9.506;2023-05-07T15:49:41;13.50;;;12.07;;
22318;SDS011;11327;52.334;9.506;2023-05-07T15:53:03;12.85;;;11.00;;
22318;SDS011;11327;52.334;9.506;2023-05-07T15:56:24;12.90;;;11.43;;
22318;SDS011;11327;52.334;9.506;2023-05-07T15:59:45;12.75;;;11.33;;
22318;SDS011;11327;52.334;9.506;2023-05-07T16:03:06;12.23;;;10.93;;
22318;SDS011;11327;52.334;9.506;2023-05-07T16:06:27;13.15;;;11.57;;
22318;SDS011;11327;52.334;9.506;2023-05-07T16:09:47;12.65;;;11.35;;
22318;SDS011;11327;52.334;9.506;2023-05-07T16:13:08;12.18;;;10.88;;
22318;SDS011;11327;52.334;9.506;2023-05-07T16:16:33;12.33;;;10.60;;
22318;SDS011;11327;52.334;9.506;2023-05-07T16:19:54;12.78;;;10.93;;
22318;SDS011;11327;52.334;9.506;2023-05-07T16:23:15;11.45;;;10.15;;
22318;SDS011;11327;52.334;9.506;2023-05-07T16:26:36;12.47;;;10.82;;
22318;SDS011;11327;52.334;9.506;2023-05-07T16:29:56;12.15;;;10.58;;
22318;SDS011;11327;52.334;9.506;2023-05-07T16:33:17;13.40;;;12.00;;
22318;SDS011;11327;52.334;9.506;2023-05-07T16:36:39;14.20;;;11.50;;
22318;SDS011;11327;52.334;9.506;2023-05-07T16:40:00;12.90;;;11.55;;
22318;SDS011;11327;52.334;9.506;2023-05-07T16:43:21;12.33;;;11.03;;
22318;SDS011;11327;52.334;9.506;2023-05-07T16:46:42;13.43;;;11.30;;
22318;SDS011;11327;52.334;9.506;2023-05-07T16:50:02;11.85;;;10.60;;
22318;SDS011;11327;52.334;9.506;2023-05-07T16:53:24;11.43;;;10.23;;
22318;SDS011;11327;52.334;9.506;2023-05-07T16:56:45;13.08;;;11.08;;
22318;SDS011;11327;52.334;9.506;2023-05-07T17:00:07;13.78;;;11.10;;
22318;SDS011;11327;52.334;9.506;2023-05-07T17:03:30;13.13;;;10.68;;
22318;SDS011;11327;52.334;9.506;2023-05-07T17:06:51;12.35;;;10.68;;
22318;SDS011;11327;52.334;9.506;2023-05-07T17:10:12;13.28;;;11.68;;
22318;SDS011;11327;52.334;9.506;2023-05-07T17:13:33;13.62;;;12.00;;
22318;SDS011;11327;52.334;9.506;2023-05-07T17:16:53;12.18;;;10.78;;
22318;SDS011;11327;52.334;9.506;2023-05-07T17:20:14;13.30;;;11.90;;
22318;SDS011;11327;52.334;9.506;2023-05-07T17:23:35;13.22;;;11.70;;
22318;SDS011;11327;52.334;9.506;2023-05-07T17:26:56;14.07;;;12.43;;
22318;SDS011;11327;52.334;9.506;2023-05-07T17:30:16;13.50;;;12.10;;
22318;SDS011;11327;52.334;9.506;2023-05-07T17:33:37;14.00;;;12.03;;
22318;SDS011;11327;52.334;9.506;2023-05-07T17:36:58;13.98;;;12.35;;
22318;SDS011;11327;52.334;9.506;2023-05-07T17:40:19;12.73;;;11.43;;
22318;SDS011;11327;52.334;9.506;2023-05-07T17:43:41;12.13;;;10.82;;
22318;SDS011;11327;52.334;9.506;2023-05-07T17:47:02;12.18;;;10.90;;
22318;SDS011;11327;52.334;9.506;2023-05-07T17:50:23;12.35;;;10.40;;
22318;SDS011;11327;52.334;9.506;2023-05-07T17:53:44;12.13;;;10.00;;
22318;SDS011;11327;52.334;9.506;2023-05-07T17:57:05;11.28;;;9.85;;
22318;SDS011;11327;52.334;9.506;2023-05-07T18:00:25;13.22;;;10.90;;
22318;SDS011;11327;52.334;9.506;2023-05-07T18:03:46;12.18;;;10.53;;
22318;SDS011;11327;52.334;9.506;2023-05-07T18:07:07;11.88;;;10.28;;
22318;SDS011;11327;52.334;9.506;2023-05-07T18:10:27;11.57;;;10.35;;
22318;SDS011;11327;52.334;9.506;2023-05-07T18:13:48;11.85;;;10.38;;
22318;SDS011;11327;52.334;9.506;2023-05-07T18:17:09;12.20;;;10.88;;
22318;SDS011;11327;52.334;9.506;2023-05-07T18:20:30;13.58;;;10.40;;
22318;SDS011;11327;52.334;9.506;2023-05-07T18:23:51;11.03;;;9.50;;
22318;SDS011;11327;52.334;9.506;2023-05-07T18:27:11;12.90;;;10.38;;
22318;SDS011;11327;52.334;9.506;2023-05-07T18:30:32;11.55;;;10.35;;
22318;SDS011;11327;52.334;9.506;2023-05-07T18:33:53;11.57;;;10.38;;
22318;SDS011;11327;52.334;9.506;2023-05-07T18:37:15;10.32;;;9.23;;
22318;SDS011;11327;52.334;9.506;2023-05-07T18:40:35;13.03;;;11.38;;
22318;SDS011;11327;52.334;9.506;2023-05-07T18:43:56;12.25;;;10.48;;
22318;SDS011;11327;52.334;9.506;2023-05-07T18:47:17;11.25;;;9.65;;
22318;SDS011;11327;52.334;9.506;2023-05-07T18:50:40;10.75;;;8.93;;
22318;SDS011;11327;52.334;9.506;2023-05-07T18:54:03;10.60;;;9.50;;
22318;SDS011;11327;52.334;9.506;2023-05-07T18:57:24;11.85;;;9.73;;
22318;SDS011;11327;52.334;9.506;2023-05-07T19:00:47;11.35;;;9.80;;
22318;SDS011;11327;52.334;9.506;2023-05-07T19:04:08;14.78;;;9.73;;
22318;SDS011;11327;52.334;9.506;2023-05-07T19:07:29;10.80;;;9.33;;
22318;SDS011;11327;52.334;9.506;2023-05-07T19:10:50;13.08;;;9.15;;
22318;SDS011;11327;52.334;9.506;2023-05-07T19:14:11;11.65;;;10.05;;
22318;SDS011;11327;52.334;9.506;2023-05-07T19:17:32;12.15;;;10.00;;
22318;SDS011;11327;52.334;9.506;2023-05-07T19:20:54;11.10;;;9.85;;
22318;SDS011;11327;52.334;9.506;2023-05-07T19:24:15;12.03;;;9.60;;
22318;SDS011;11327;52.334;9.506;2023-05-07T19:27:36;11.48;;;10.05;;
22318;SDS011;11327;52.334;9.506;2023-05-07T19:30:56;11.95;;;10.05;;
22318;SDS011;11327;52.334;9.506;2023-05-07T19:34:17;12.33;;;10.20;;
22318;SDS011;11327;52.334;9.506;2023-05-07T19:37:38;11.65;;;10.05;;
22318;SDS011;11327;52.334;9.506;2023-05-07T19:40:59;10.98;;;9.75;;
22318;SDS011;11327;52.334;9.506;2023-05-07T19:44:20;11.57;;;9.28;;
22318;SDS011;11327;52.334;9.506;2023-05-07T19:47:40;12.47;;;9.73;;
22318;SDS011;11327;52.334;9.506;2023-05-07T19:51:01;12.05;;;10.55;;
22318;SDS011;11327;52.334;9.506;2023-05-07T19:54:22;11.15;;;9.63;;
22318;SDS011;11327;52.334;9.506;2023-05-07T19:57:43;10.70;;;8.95;;